sensor_id;sensor_type;location;lat;lon;timestamp;P1;durP1;ratioP1;P2;durP2;ratioP2
41139;SDS011;26881;48.784;9.192;2022-09-03T00:03:56;3.65;;;1.98;;
41139;SDS011;26881;48.784;9.192;2022-09-03T00:09:25;2.63;;;1.83;;
41139;SDS011;26881;48.784;9.192;2022-09-03T00:15:04;2.28;;;1.83;;
41139;SDS011;26881;48.784;9.192;2022-09-03T00:31:22;7.90;;;2.15;;
41139;SDS011;26881;48.784;9.192;2022-09-03T00:36:49;5.75;;;2.03;;
41139;SDS011;26881;48.784;9.192;2022-09-03T00:42:21;6.40;;;2.30;;
41139;SDS011;26881;48.784;9.192;2022-09-03T00:48:54;4.63;;;1.88;;
41139;SDS011;26881;48.784;9.192;2022-09-03T00:54:11;2.17;;;1.55;;
41139;SDS011;26881;48.784;9.192;2022-09-03T01:05:52;5.63;;;1.98;;
41139;SDS011;26881;48.784;9.192;2022-09-03T01:11:36;5.43;;;1.42;;
41139;SDS011;26881;48.784;9.192;2022-09-03T01:22:43;3.33;;;1.75;;
41139;SDS011;26881;48.784;9.192;2022-09-03T01:28:28;2.80;;;1.30;;
41139;SDS011;26881;48.784;9.192;2022-09-03T01:34:17;3.10;;;1.20;;
41139;SDS011;26881;48.784;9.192;2022-09-03T01:39:59;1.25;;;1.15;;
41139;SDS011;26881;48.784;9.192;2022-09-03T01:51:29;3.28;;;1.58;;
41139;SDS011;26881;48.784;9.192;2022-09-03T02:02:59;2.15;;;1.20;;
41139;SDS011;26881;48.784;9.192;2022-09-03T02:08:26;4.32;;;1.23;;
41139;SDS011;26881;48.784;9.192;2022-09-03T02:13:54;3.25;;;1.20;;
41139;SDS011;26881;48.784;9.192;2022-09-03T02:19:18;3.13;;;1.30;;
41139;SDS011;26881;48.784;9.192;2022-09-03T02:24:40;4.03;;;2.00;;
41139;SDS011;26881;48.784;9.192;2022-09-03T02:30:02;5.95;;;1.75;;
41139;SDS011;26881;48.784;9.192;2022-09-03T02:35:25;3.40;;;1.75;;
41139;SDS011;26881;48.784;9.192;2022-09-03T02:40:47;3.97;;;1.40;;
41139;SDS011;26881;48.784;9.192;2022-09-03T02:46:11;3.08;;;1.40;;
41139;SDS011;26881;48.784;9.192;2022-09-03T02:51:39;1.20;;;1.10;;
41139;SDS011;26881;48.784;9.192;2022-09-03T02:57:03;2.78;;;1.30;;
41139;SDS011;26881;48.784;9.192;2022-09-03T03:02:24;1.95;;;1.10;;
41139;SDS011;26881;48.784;9.192;2022-09-03T03:07:46;5.43;;;1.23;;
41139;SDS011;26881;48.784;9.192;2022-09-03T03:13:08;1.58;;;1.00;;
41139;SDS011;26881;48.784;9.192;2022-09-03T03:18:30;2.35;;;1.20;;
41139;SDS011;26881;48.784;9.192;2022-09-03T03:23:52;1.90;;;1.10;;
41139;SDS011;26881;48.784;9.192;2022-09-03T03:29:15;2.83;;;1.50;;
41139;SDS011;26881;48.784;9.192;2022-09-03T03:34:41;2.70;;;1.00;;
41139;SDS011;26881;48.784;9.192;2022-09-03T03:40:02;3.15;;;1.27;;
41139;SDS011;26881;48.784;9.192;2022-09-03T03:45:24;3.28;;;1.27;;
41139;SDS011;26881;48.784;9.192;2022-09-03T03:50:46;6.07;;;1.42;;
41139;SDS011;26881;48.784;9.192;2022-09-03T03:56:09;2.92;;;1.20;;
41139;SDS011;26881;48.784;9.192;2022-09-03T04:01:33;2.13;;;1.25;;
41139;SDS011;26881;48.784;9.192;2022-09-03T04:06:55;2.85;;;1.77;;
41139;SDS011;26881;48.784;9.192;2022-09-03T04:12:16;3.88;;;1.40;;
41139;SDS011;26881;48.784;9.192;2022-09-03T04:17:39;2.95;;;1.77;;
41139;SDS011;26881;48.784;9.192;2022-09-03T04:23:01;3.40;;;1.40;;
41139;SDS011;26881;48.784;9.192;2022-09-03T04:28:23;3.42;;;1.58;;
41139;SDS011;26881;48.784;9.192;2022-09-03T04:33:45;1.98;;;1.58;;
41139;SDS011;26881;48.784;9.192;2022-09-03T04:39:07;4.22;;;2.00;;
41139;SDS011;26881;48.784;9.192;2022-09-03T04:44:29;3.30;;;1.55;;
41139;SDS011;26881;48.784;9.192;2022-09-03T04:49:51;1.40;;;1.30;;
41139;SDS011;26881;48.784;9.192;2022-09-03T04:55:14;3.28;;;1.60;;
41139;SDS011;26881;48.784;9.192;2022-09-03T05:00:37;3.08;;;1.52;;
41139;SDS011;26881;48.784;9.192;2022-09-03T05:05:59;1.65;;;1.48;;
41139;SDS011;26881;48.784;9.192;2022-09-03T05:11:21;3.97;;;1.58;;
41139;SDS011;26881;48.784;9.192;2022-09-03T05:16:43;2.47;;;1.60;;
41139;SDS011;26881;48.784;9.192;2022-09-03T05:22:13;1.55;;;1.45;;
41139;SDS011;26881;48.784;9.192;2022-09-03T05:27:41;4.00;;;1.60;;
41139;SDS011;26881;48.784;9.192;2022-09-03T05:33:03;3.65;;;1.58;;
41139;SDS011;26881;48.784;9.192;2022-09-03T05:38:28;1.65;;;1.55;;
41139;SDS011;26881;48.784;9.192;2022-09-03T05:43:51;4.22;;;1.60;;
41139;SDS011;26881;48.784;9.192;2022-09-03T05:49:16;4.45;;;1.75;;
41139;SDS011;26881;48.784;9.192;2022-09-03T05:54:38;2.53;;;1.65;;
41139;SDS011;26881;48.784;9.192;2022-09-03T05:59:59;1.50;;;1.40;;
41139;SDS011;26881;48.784;9.192;2022-09-03T06:05:21;1.98;;;1.80;;
41139;SDS011;26881;48.784;9.192;2022-09-03T06:10:43;3.03;;;1.70;;
41139;SDS011;26881;48.784;9.192;2022-09-03T06:16:05;1.85;;;1.63;;
41139;SDS011;26881;48.784;9.192;2022-09-03T06:21:29;2.63;;;1.67;;
41139;SDS011;26881;48.784;9.192;2022-09-03T06:26:51;4.70;;;1.80;;
41139;SDS011;26881;48.784;9.192;2022-09-03T06:32:12;2.65;;;1.90;;
41139;SDS011;26881;48.784;9.192;2022-09-03T06:37:41;4.35;;;1.88;;
41139;SDS011;26881;48.784;9.192;2022-09-03T06:43:03;3.13;;;1.95;;
41139;SDS011;26881;48.784;9.192;2022-09-03T06:48:25;4.25;;;1.80;;
41139;SDS011;26881;48.784;9.192;2022-09-03T06:53:49;3.25;;;1.40;;
41139;SDS011;26881;48.784;9.192;2022-09-03T06:59:13;3.72;;;1.90;;
41139;SDS011;26881;48.784;9.192;2022-09-03T07:04:35;3.80;;;1.70;;
41139;SDS011;26881;48.784;9.192;2022-09-03T07:09:57;3.72;;;1.77;;
41139;SDS011;26881;48.784;9.192;2022-09-03T07:15:19;6.43;;;1.92;;
41139;SDS011;26881;48.784;9.192;2022-09-03T07:20:40;4.82;;;2.50;;
41139;SDS011;26881;48.784;9.192;2022-09-03T07:26:06;5.68;;;2.03;;
41139;SDS011;26881;48.784;9.192;2022-09-03T07:31:31;3.20;;;2.00;;
41139;SDS011;26881;48.784;9.192;2022-09-03T07:36:54;5.40;;;2.05;;
41139;SDS011;26881;48.784;9.192;2022-09-03T07:42:16;4.80;;;2.40;;
41139;SDS011;26881;48.784;9.192;2022-09-03T07:47:44;3.13;;;2.10;;
41139;SDS011;26881;48.784;9.192;2022-09-03T07:53:07;6.18;;;2.40;;
41139;SDS011;26881;48.784;9.192;2022-09-03T07:58:30;3.65;;;2.33;;
41139;SDS011;26881;48.784;9.192;2022-09-03T08:03:53;4.63;;;2.63;;
41139;SDS011;26881;48.784;9.192;2022-09-03T08:09:15;2.17;;;2.08;;
41139;SDS011;26881;48.784;9.192;2022-09-03T08:14:37;4.80;;;2.38;;
41139;SDS011;26881;48.784;9.192;2022-09-03T08:20:00;2.47;;;2.28;;
41139;SDS011;26881;48.784;9.192;2022-09-03T08:25:22;3.80;;;2.40;;
41139;SDS011;26881;48.784;9.192;2022-09-03T08:30:44;4.93;;;2.40;;
41139;SDS011;26881;48.784;9.192;2022-09-03T08:36:06;2.70;;;2.22;;
41139;SDS011;26881;48.784;9.192;2022-09-03T08:41:44;2.88;;;2.05;;
41139;SDS011;26881;48.784;9.192;2022-09-03T08:47:23;6.32;;;2.80;;
41139;SDS011;26881;48.784;9.192;2022-09-03T08:52:50;5.40;;;2.78;;
41139;SDS011;26881;48.784;9.192;2022-09-03T08:58:19;3.28;;;2.55;;
41139;SDS011;26881;48.784;9.192;2022-09-03T09:09:36;5.47;;;2.58;;
41139;SDS011;26881;48.784;9.192;2022-09-03T09:20:55;5.45;;;2.80;;
41139;SDS011;26881;48.784;9.192;2022-09-03T09:26:27;4.57;;;2.75;;
41139;SDS011;26881;48.784;9.192;2022-09-03T09:31:49;3.78;;;2.40;;
41139;SDS011;26881;48.784;9.192;2022-09-03T09:37:12;5.32;;;2.67;;
41139;SDS011;26881;48.784;9.192;2022-09-03T09:42:35;4.97;;;2.95;;
41139;SDS011;26881;48.784;9.192;2022-09-03T09:47:57;5.60;;;3.42;;
41139;SDS011;26881;48.784;9.192;2022-09-03T09:53:18;5.93;;;2.65;;
41139;SDS011;26881;48.784;9.192;2022-09-03T09:58:42;6.63;;;2.90;;
41139;SDS011;26881;48.784;9.192;2022-09-03T10:04:08;3.33;;;2.58;;
41139;SDS011;26881;48.784;9.192;2022-09-03T10:09:32;4.53;;;3.00;;
41139;SDS011;26881;48.784;9.192;2022-09-03T10:14:56;3.72;;;2.90;;
41139;SDS011;26881;48.784;9.192;2022-09-03T10:26:08;3.22;;;2.53;;
41139;SDS011;26881;48.784;9.192;2022-09-03T10:31:54;4.55;;;2.70;;
41139;SDS011;26881;48.784;9.192;2022-09-03T10:37:21;4.50;;;2.75;;
41139;SDS011;26881;48.784;9.192;2022-09-03T10:43:03;3.20;;;2.90;;
41139;SDS011;26881;48.784;9.192;2022-09-03T10:54:33;13.35;;;3.13;;
41139;SDS011;26881;48.784;9.192;2022-09-03T11:00:11;3.63;;;3.03;;
41139;SDS011;26881;48.784;9.192;2022-09-03T11:11:22;5.80;;;2.80;;
41139;SDS011;26881;48.784;9.192;2022-09-03T11:16:53;4.97;;;2.90;;
41139;SDS011;26881;48.784;9.192;2022-09-03T11:22:20;3.72;;;2.63;;
41139;SDS011;26881;48.784;9.192;2022-09-03T11:33:44;4.05;;;2.65;;
41139;SDS011;26881;48.784;9.192;2022-09-03T11:44:40;4.40;;;2.88;;
41139;SDS011;26881;48.784;9.192;2022-09-03T11:55:54;3.90;;;2.75;;
41139;SDS011;26881;48.784;9.192;2022-09-03T12:01:26;4.13;;;2.40;;
41139;SDS011;26881;48.784;9.192;2022-09-03T12:06:58;8.30;;;2.80;;
41139;SDS011;26881;48.784;9.192;2022-09-03T12:18:33;4.53;;;2.50;;
41139;SDS011;26881;48.784;9.192;2022-09-03T12:23:56;4.85;;;2.65;;
41139;SDS011;26881;48.784;9.192;2022-09-03T12:29:25;3.58;;;2.30;;
41139;SDS011;26881;48.784;9.192;2022-09-03T12:34:52;3.83;;;3.00;;
41139;SDS011;26881;48.784;9.192;2022-09-03T12:40:27;3.90;;;2.67;;
41139;SDS011;26881;48.784;9.192;2022-09-03T12:45:51;3.65;;;2.10;;
41139;SDS011;26881;48.784;9.192;2022-09-03T12:51:33;2.97;;;2.35;;
41139;SDS011;26881;48.784;9.192;2022-09-03T12:57:19;3.83;;;2.97;;
41139;SDS011;26881;48.784;9.192;2022-09-03T13:03:02;6.68;;;2.85;;
41139;SDS011;26881;48.784;9.192;2022-09-03T13:08:30;6.38;;;2.38;;
41139;SDS011;26881;48.784;9.192;2022-09-03T13:14:03;3.33;;;2.03;;
41139;SDS011;26881;48.784;9.192;2022-09-03T13:25:11;4.68;;;1.80;;
41139;SDS011;26881;48.784;9.192;2022-09-03T13:36:33;3.30;;;2.42;;
41139;SDS011;26881;48.784;9.192;2022-09-03T13:42:15;8.75;;;2.35;;
41139;SDS011;26881;48.784;9.192;2022-09-03T13:47:47;4.28;;;2.90;;
41139;SDS011;26881;48.784;9.192;2022-09-03T14:04:53;2.72;;;1.80;;
41139;SDS011;26881;48.784;9.192;2022-09-03T14:16:01;1.90;;;1.60;;
41139;SDS011;26881;48.784;9.192;2022-09-03T14:21:38;2.80;;;1.60;;
41139;SDS011;26881;48.784;9.192;2022-09-03T14:27:07;1.52;;;1.30;;
41139;SDS011;26881;48.784;9.192;2022-09-03T14:32:31;3.65;;;1.60;;
41139;SDS011;26881;48.784;9.192;2022-09-03T14:54:56;2.50;;;1.10;;
41139;SDS011;26881;48.784;9.192;2022-09-03T15:00:33;1.52;;;1.10;;
41139;SDS011;26881;48.784;9.192;2022-09-03T15:12:07;1.98;;;1.50;;
41139;SDS011;26881;48.784;9.192;2022-09-03T15:29:20;3.05;;;1.33;;
41139;SDS011;26881;48.784;9.192;2022-09-03T15:40:28;3.20;;;1.38;;
41139;SDS011;26881;48.784;9.192;2022-09-03T15:51:41;2.55;;;2.00;;
41139;SDS011;26881;48.784;9.192;2022-09-03T16:02:50;2.83;;;2.10;;
41139;SDS011;26881;48.784;9.192;2022-09-03T16:08:25;2.45;;;1.60;;
41139;SDS011;26881;48.784;9.192;2022-09-03T16:14:27;2.30;;;1.85;;
41139;SDS011;26881;48.784;9.192;2022-09-03T16:20:03;1.98;;;1.88;;
41139;SDS011;26881;48.784;9.192;2022-09-03T16:25:29;4.55;;;1.75;;
41139;SDS011;26881;48.784;9.192;2022-09-03T16:36:23;6.90;;;2.03;;
41139;SDS011;26881;48.784;9.192;2022-09-03T16:42:01;2.45;;;2.22;;
41139;SDS011;26881;48.784;9.192;2022-09-03T16:53:12;3.38;;;1.75;;
41139;SDS011;26881;48.784;9.192;2022-09-03T17:11:03;3.35;;;2.30;;
41139;SDS011;26881;48.784;9.192;2022-09-03T17:50:55;3.25;;;2.30;;
41139;SDS011;26881;48.784;9.192;2022-09-03T17:56:29;3.42;;;2.40;;
41139;SDS011;26881;48.784;9.192;2022-09-03T18:02:07;3.47;;;2.08;;
41139;SDS011;26881;48.784;9.192;2022-09-03T18:07:42;5.10;;;2.22;;
41139;SDS011;26881;48.784;9.192;2022-09-03T18:18:46;2.00;;;1.90;;
41139;SDS011;26881;48.784;9.192;2022-09-03T18:30:12;3.63;;;2.38;;
41139;SDS011;26881;48.784;9.192;2022-09-03T18:35:55;3.25;;;2.95;;
41139;SDS011;26881;48.784;9.192;2022-09-03T18:41:46;4.55;;;2.63;;
41139;SDS011;26881;48.784;9.192;2022-09-03T18:47:53;2.83;;;2.00;;
41139;SDS011;26881;48.784;9.192;2022-09-03T19:00:21;2.85;;;2.35;;
41139;SDS011;26881;48.784;9.192;2022-09-03T19:06:04;4.30;;;3.17;;
41139;SDS011;26881;48.784;9.192;2022-09-03T19:11:59;4.72;;;3.58;;
41139;SDS011;26881;48.784;9.192;2022-09-03T19:18:33;5.30;;;3.70;;
41139;SDS011;26881;48.784;9.192;2022-09-03T19:24:34;7.18;;;4.18;;
41139;SDS011;26881;48.784;9.192;2022-09-03T19:30:25;6.95;;;4.03;;
41139;SDS011;26881;48.784;9.192;2022-09-03T19:36:21;5.10;;;3.58;;
41139;SDS011;26881;48.784;9.192;2022-09-03T19:42:36;5.57;;;3.72;;
41139;SDS011;26881;48.784;9.192;2022-09-03T19:54:21;3.88;;;3.03;;
41139;SDS011;26881;48.784;9.192;2022-09-03T20:00:04;5.63;;;3.85;;
41139;SDS011;26881;48.784;9.192;2022-09-03T20:05:53;5.68;;;3.55;;
41139;SDS011;26881;48.784;9.192;2022-09-03T20:11:34;3.90;;;3.40;;
41139;SDS011;26881;48.784;9.192;2022-09-03T20:17:12;6.50;;;3.42;;
41139;SDS011;26881;48.784;9.192;2022-09-03T20:23:03;5.20;;;3.35;;
41139;SDS011;26881;48.784;9.192;2022-09-03T20:40:00;8.18;;;4.03;;
41139;SDS011;26881;48.784;9.192;2022-09-03T20:45:49;6.03;;;4.43;;
41139;SDS011;26881;48.784;9.192;2022-09-03T20:51:24;7.82;;;4.03;;
41139;SDS011;26881;48.784;9.192;2022-09-03T20:56:58;4.88;;;4.22;;
41139;SDS011;26881;48.784;9.192;2022-09-03T21:14:30;5.32;;;4.25;;
41139;SDS011;26881;48.784;9.192;2022-09-03T21:20:08;4.47;;;4.07;;
41139;SDS011;26881;48.784;9.192;2022-09-03T21:26:04;5.03;;;3.78;;
41139;SDS011;26881;48.784;9.192;2022-09-03T21:31:46;6.43;;;3.85;;
41139;SDS011;26881;48.784;9.192;2022-09-03T21:37:16;5.25;;;3.85;;
41139;SDS011;26881;48.784;9.192;2022-09-03T21:42:46;10.00;;;3.35;;
41139;SDS011;26881;48.784;9.192;2022-09-03T21:48:15;5.03;;;3.33;;
41139;SDS011;26881;48.784;9.192;2022-09-03T21:53:57;4.68;;;3.60;;
41139;SDS011;26881;48.784;9.192;2022-09-03T21:59:29;4.53;;;3.58;;
41139;SDS011;26881;48.784;9.192;2022-09-03T22:05:14;6.03;;;3.70;;
41139;SDS011;26881;48.784;9.192;2022-09-03T22:16:16;5.00;;;2.20;;
41139;SDS011;26881;48.784;9.192;2022-09-03T22:21:47;6.10;;;3.08;;
41139;SDS011;26881;48.784;9.192;2022-09-03T22:27:32;5.82;;;3.95;;
41139;SDS011;26881;48.784;9.192;2022-09-03T22:44:34;3.33;;;2.42;;
41139;SDS011;26881;48.784;9.192;2022-09-03T22:51:03;3.50;;;2.17;;
41139;SDS011;26881;48.784;9.192;2022-09-03T22:56:13;3.17;;;2.13;;
41139;SDS011;26881;48.784;9.192;2022-09-03T23:01:43;3.75;;;2.28;;
41139;SDS011;26881;48.784;9.192;2022-09-03T23:07:10;6.90;;;2.38;;
41139;SDS011;26881;48.784;9.192;2022-09-03T23:12:47;2.90;;;2.60;;
41139;SDS011;26881;48.784;9.192;2022-09-03T23:18:14;3.22;;;2.45;;
41139;SDS011;26881;48.784;9.192;2022-09-03T23:23:41;3.17;;;2.88;;
41139;SDS011;26881;48.784;9.192;2022-09-03T23:29:12;5.05;;;3.45;;
41139;SDS011;26881;48.784;9.192;2022-09-03T23:34:39;6.07;;;3.25;;
41139;SDS011;26881;48.784;9.192;2022-09-03T23:46:04;3.88;;;3.22;;
